createdAt,value
2019-05-18T00:00:36.147Z,53.70
2019-05-18T00:03:07.113Z,53.70
2019-05-18T00:05:38.010Z,53.70
2019-05-18T00:08:08.714Z,53.70
2019-05-18T00:10:39.586Z,53.70
2019-05-18T00:13:10.417Z,53.70
2019-05-18T00:19:29.495Z,53.70
2019-05-18T00:22:00.174Z,53.70
2019-05-18T00:24:31.104Z,53.80
2019-05-18T00:27:02.285Z,53.80
2019-05-18T00:29:33.163Z,53.80
2019-05-18T00:32:04.141Z,53.70
2019-05-18T00:34:34.990Z,53.80
2019-05-18T00:37:05.850Z,53.70
2019-05-18T00:39:36.723Z,53.60
2019-05-18T00:42:07.831Z,53.60
2019-05-18T00:44:39.301Z,53.60
2019-05-18T00:47:10.108Z,53.60
2019-05-18T00:49:41.226Z,53.70
2019-05-18T00:52:11.983Z,53.60
2019-05-18T00:54:42.873Z,53.70
2019-05-18T00:57:13.678Z,53.50
2019-05-18T00:59:44.448Z,53.60
2019-05-18T01:02:15.243Z,54.10
2019-05-18T01:04:46.392Z,53.60
2019-05-18T01:07:17.427Z,53.60
2019-05-18T01:09:48.393Z,53.60
2019-05-18T01:12:19.388Z,53.60
2019-05-18T01:14:50.355Z,53.60
2019-05-18T01:17:21.082Z,53.60
2019-05-18T01:19:52.091Z,53.60
2019-05-18T01:22:23.215Z,53.60
2019-05-18T01:24:53.807Z,53.50
2019-05-18T01:27:24.967Z,53.60
2019-05-18T01:29:55.884Z,53.50
2019-05-18T01:32:27.276Z,53.50
2019-05-18T01:34:58.298Z,53.50
2019-05-18T01:37:29.054Z,53.40
2019-05-18T01:39:59.773Z,53.40
2019-05-18T01:42:30.711Z,53.30
2019-05-18T01:45:15.782Z,53.30
2019-05-18T01:47:33.954Z,53.40
2019-05-18T01:50:05.213Z,53.30
2019-05-18T01:52:36.298Z,53.40
2019-05-18T01:55:07.163Z,53.40
2019-05-18T01:57:38.008Z,53.40
2019-05-18T02:00:09.412Z,53.30
2019-05-18T02:02:40.481Z,53.30
2019-05-18T02:05:12.185Z,53.30
2019-05-18T02:07:43.053Z,53.30
2019-05-18T02:10:13.832Z,53.30
2019-05-18T02:12:44.653Z,53.10
2019-05-18T02:15:15.700Z,53.30
2019-05-18T02:17:46.415Z,53.30
2019-05-18T02:20:17.245Z,53.30
2019-05-18T02:22:47.992Z,53.40
2019-05-18T02:25:18.666Z,53.30
2019-05-18T02:27:49.381Z,53.30
2019-05-18T02:30:20.392Z,53.20
2019-05-18T02:32:51.271Z,53.20
2019-05-18T02:35:22.199Z,53.10
2019-05-18T02:37:54.606Z,53.10
2019-05-18T02:40:25.520Z,53.10
2019-05-18T02:42:56.519Z,53.00
2019-05-18T02:45:27.499Z,53.10
2019-05-18T02:47:58.162Z,53.10
2019-05-18T02:50:29.266Z,53.10
2019-05-18T02:53:00.052Z,53.10
2019-05-18T02:55:31.143Z,53.20
2019-05-18T02:58:01.952Z,53.10
2019-05-18T03:00:32.849Z,53.70
2019-05-18T03:03:03.687Z,53.20
2019-05-18T03:05:34.674Z,53.20
2019-05-18T03:08:05.807Z,53.10
2019-05-18T03:10:36.761Z,53.10
2019-05-18T03:13:08.631Z,53.10
2019-05-18T03:15:39.617Z,53.20
2019-05-18T03:18:10.554Z,53.20
2019-05-18T03:20:41.245Z,53.20
2019-05-18T03:23:13.003Z,53.10
2019-05-18T03:25:43.863Z,53.80
2019-05-18T03:28:14.962Z,53.10
2019-05-18T03:30:45.690Z,53.10
2019-05-18T03:33:16.545Z,53.00
2019-05-18T03:35:47.502Z,53.00
2019-05-18T03:38:18.529Z,53.40
2019-05-18T03:40:49.343Z,52.90
2019-05-18T03:43:20.284Z,53.00
2019-05-18T03:45:51.323Z,52.80
2019-05-18T03:48:21.977Z,52.90
2019-05-18T03:50:53.325Z,52.90
2019-05-18T03:53:24.709Z,53.40
2019-05-18T03:55:55.749Z,52.90
2019-05-18T03:58:26.482Z,52.90
2019-05-18T04:00:57.577Z,52.80
2019-05-18T04:03:28.701Z,52.70
2019-05-18T04:06:00.438Z,52.80
2019-05-18T04:08:31.307Z,52.80
2019-05-18T04:11:02.331Z,53.40
2019-05-18T04:13:33.306Z,52.80
2019-05-18T04:16:04.257Z,52.90
2019-05-18T04:18:35.190Z,52.90
2019-05-18T04:21:08.733Z,53.00
2019-05-18T04:23:39.428Z,52.90
2019-05-18T04:26:10.251Z,53.50
2019-05-18T04:28:41.079Z,52.80
2019-05-18T04:31:11.982Z,52.80
2019-05-18T04:33:43.007Z,52.80
2019-05-18T04:36:14.012Z,52.80
2019-05-18T04:38:44.863Z,52.80
2019-05-18T04:41:15.671Z,52.90
2019-05-18T04:43:46.532Z,53.00
2019-05-18T04:46:17.389Z,52.90
2019-05-18T04:48:48.342Z,53.00
2019-05-18T04:51:19.364Z,53.00
2019-05-18T04:53:50.322Z,52.90
2019-05-18T04:56:21.172Z,52.90
2019-05-18T04:58:52.004Z,53.00
2019-05-18T05:01:22.767Z,53.00
2019-05-18T05:03:53.542Z,52.90
2019-05-18T05:06:24.211Z,52.90
2019-05-18T05:08:55.315Z,53.60
2019-05-18T05:11:26.117Z,53.00
2019-05-18T05:13:56.854Z,53.00
2019-05-18T05:16:27.752Z,52.90
2019-05-18T05:18:58.591Z,52.90
2019-05-18T05:21:29.767Z,52.90
2019-05-18T05:24:00.651Z,52.90
2019-05-18T05:26:31.683Z,52.90
2019-05-18T05:29:02.492Z,53.90
2019-05-18T05:31:33.665Z,55.70
2019-05-18T05:34:04.535Z,56.00
2019-05-18T05:36:35.333Z,58.50
2019-05-18T05:39:08.050Z,57.80
2019-05-18T05:41:38.991Z,57.70
2019-05-18T05:44:10.114Z,56.80
2019-05-18T05:46:41.139Z,56.00
2019-05-18T05:49:12.087Z,55.70
2019-05-18T05:51:43.059Z,55.40
2019-05-18T05:54:14.110Z,55.00
2019-05-18T05:56:45.214Z,55.30
2019-05-18T05:59:16.169Z,54.40
2019-05-18T06:01:47.512Z,54.30
2019-05-18T06:04:18.264Z,54.30
2019-05-18T06:06:49.403Z,54.20
2019-05-18T06:09:20.484Z,54.00
2019-05-18T06:11:51.358Z,53.90
2019-05-18T06:14:22.200Z,53.80
2019-05-18T06:16:53.347Z,53.80
2019-05-18T06:19:24.458Z,53.80
2019-05-18T06:21:55.480Z,54.00
2019-05-18T06:24:26.813Z,53.60
2019-05-18T06:26:58.281Z,53.60
2019-05-18T06:29:29.757Z,53.60
2019-05-18T06:32:00.737Z,53.60
2019-05-18T06:34:31.954Z,53.60
2019-05-18T06:37:03.154Z,53.50
2019-05-18T06:39:35.121Z,53.40
2019-05-18T06:42:10.426Z,53.30
2019-05-18T06:44:40.233Z,53.20
2019-05-18T06:47:11.673Z,53.20
2019-05-18T06:49:42.683Z,53.20
2019-05-18T06:52:14.130Z,53.10
2019-05-18T06:54:44.934Z,53.10
2019-05-18T06:57:16.208Z,53.00
2019-05-18T06:59:49.340Z,53.20
2019-05-18T07:02:20.296Z,53.30
2019-05-18T07:04:51.437Z,53.40
2019-05-18T07:07:22.350Z,53.50
2019-05-18T07:09:53.651Z,53.50
2019-05-18T07:12:25.170Z,53.40
2019-05-18T07:15:00.255Z,53.40
2019-05-18T07:17:34.710Z,53.50
2019-05-18T07:20:06.319Z,53.40
2019-05-18T07:22:42.613Z,53.20
2019-05-18T07:25:13.826Z,53.10
2019-05-18T07:27:46.773Z,53.00
2019-05-18T07:30:19.067Z,52.80
2019-05-18T07:32:52.090Z,52.70
2019-05-18T07:35:23.096Z,52.50
2019-05-18T07:37:54.657Z,52.40
2019-05-18T07:40:25.878Z,52.30
2019-05-18T07:42:56.758Z,52.20
2019-05-18T07:45:27.688Z,52.10
2019-05-18T07:48:00.316Z,52.00
2019-05-18T07:50:31.225Z,51.90
2019-05-18T07:53:02.144Z,51.80
2019-05-18T07:55:32.859Z,51.80
2019-05-18T07:58:03.764Z,52.10
2019-05-18T08:00:34.757Z,52.30
2019-05-18T08:03:05.566Z,52.40
2019-05-18T08:05:36.316Z,52.00
2019-05-18T08:08:07.129Z,52.40
2019-05-18T08:10:38.644Z,52.30
2019-05-18T08:13:09.457Z,52.20
2019-05-18T08:15:40.485Z,52.10
2019-05-18T08:18:11.617Z,52.00
2019-05-18T08:20:43.711Z,51.90
2019-05-18T08:23:14.687Z,51.80
2019-05-18T08:25:46.299Z,51.60
2019-05-18T08:28:17.211Z,51.60
2019-05-18T08:30:48.098Z,51.40
2019-05-18T08:33:18.845Z,51.40
2019-05-18T08:35:49.827Z,51.30
2019-05-18T08:38:20.757Z,51.20
2019-05-18T08:40:51.846Z,51.20
2019-05-18T08:43:23.468Z,51.10
2019-05-18T08:45:54.989Z,51.10
2019-05-18T08:48:26.219Z,51.00
2019-05-18T08:50:57.786Z,50.90
2019-05-18T08:53:28.925Z,50.90
2019-05-18T08:55:59.917Z,50.80
2019-05-18T08:58:30.646Z,50.40
2019-05-18T09:01:01.481Z,50.40
2019-05-18T09:03:32.596Z,50.10
2019-05-18T09:06:03.887Z,50.60
2019-05-18T09:08:34.726Z,50.70
2019-05-18T09:11:05.841Z,50.90
2019-05-18T09:13:36.620Z,50.90
2019-05-18T09:16:07.421Z,50.80
2019-05-18T09:18:38.591Z,50.90
2019-05-18T09:21:09.532Z,50.80
2019-05-18T09:23:40.501Z,50.90
2019-05-18T09:26:11.461Z,50.80
2019-05-18T09:28:42.517Z,50.80
2019-05-18T09:31:13.318Z,50.80
2019-05-18T09:33:44.541Z,50.80
2019-05-18T09:36:15.691Z,50.80
2019-05-18T09:38:46.924Z,50.80
2019-05-18T09:41:17.932Z,50.80
2019-05-18T09:43:49.416Z,50.80
2019-05-18T09:46:20.724Z,50.70
2019-05-18T09:48:51.562Z,50.80
2019-05-18T09:51:22.797Z,50.10
2019-05-18T09:53:53.601Z,48.90
2019-05-18T09:56:24.326Z,48.60
2019-05-18T09:58:55.465Z,48.50
2019-05-18T10:01:29.739Z,48.40
2019-05-18T10:04:00.908Z,48.50
2019-05-18T10:06:31.627Z,48.60
2019-05-18T10:09:04.438Z,48.30
2019-05-18T10:11:38.421Z,48.10
2019-05-18T10:14:08.606Z,48.10
2019-05-18T10:16:39.627Z,47.90
2019-05-18T10:19:10.864Z,48.00
2019-05-18T10:21:41.793Z,47.80
2019-05-18T10:24:13.327Z,47.80
2019-05-18T10:26:43.999Z,47.90
2019-05-18T10:29:14.712Z,48.30
2019-05-18T10:31:45.742Z,48.20
2019-05-18T10:34:16.630Z,48.10
2019-05-18T10:36:47.233Z,48.30
2019-05-18T10:39:18.708Z,48.20
2019-05-18T10:41:49.533Z,48.30
2019-05-18T10:44:20.611Z,48.10
2019-05-18T10:46:51.368Z,48.20
2019-05-18T10:49:23.429Z,48.10
2019-05-18T10:51:54.453Z,48.20
2019-05-18T10:54:25.658Z,48.20
2019-05-18T10:56:56.945Z,48.90
2019-05-18T10:59:27.633Z,49.10
2019-05-18T11:01:58.506Z,49.00
2019-05-18T11:04:29.533Z,49.60
2019-05-18T11:07:00.435Z,49.00
2019-05-18T11:09:31.437Z,48.90
2019-05-18T11:12:02.661Z,49.00
2019-05-18T11:14:33.676Z,49.10
2019-05-18T11:17:06.630Z,49.10
2019-05-18T11:19:37.371Z,48.80
2019-05-18T11:22:08.360Z,48.50
2019-05-18T11:24:39.293Z,48.60
2019-05-18T11:27:09.796Z,48.70
2019-05-18T11:29:40.561Z,48.60
2019-05-18T11:32:11.367Z,49.00
2019-05-18T11:34:42.321Z,49.10
2019-05-18T11:37:13.177Z,49.00
2019-05-18T11:39:44.163Z,50.80
2019-05-18T11:42:15.339Z,50.30
2019-05-18T11:44:46.223Z,49.80
2019-05-18T11:47:17.026Z,49.90
2019-05-18T11:49:48.381Z,49.90
2019-05-18T11:52:19.215Z,49.80
2019-05-18T11:54:50.360Z,50.00
2019-05-18T11:57:21.224Z,50.20
2019-05-18T11:59:52.230Z,49.60
2019-05-18T12:02:23.430Z,49.70
2019-05-18T12:04:54.429Z,49.20
2019-05-18T12:07:25.475Z,48.90
2019-05-18T12:09:56.417Z,49.20
2019-05-18T12:12:27.140Z,48.40
2019-05-18T12:14:58.169Z,47.80
2019-05-18T12:17:29.110Z,47.70
2019-05-18T12:20:00.068Z,47.80
2019-05-18T12:22:31.116Z,47.50
2019-05-18T12:25:02.224Z,47.20
2019-05-18T12:27:33.175Z,47.60
2019-05-18T12:30:04.134Z,47.10
2019-05-18T12:32:35.104Z,47.80
2019-05-18T12:35:06.771Z,47.30
2019-05-18T12:37:37.651Z,47.50
2019-05-18T12:40:09.278Z,47.40
2019-05-18T12:42:40.146Z,47.60
2019-05-18T12:45:11.250Z,47.30
2019-05-18T12:47:41.972Z,47.30
2019-05-18T12:50:14.507Z,46.70
2019-05-18T12:52:45.423Z,47.20
2019-05-18T12:55:16.236Z,47.20
2019-05-18T12:57:47.093Z,46.70
2019-05-18T13:00:18.144Z,47.40
2019-05-18T13:02:48.995Z,47.30
2019-05-18T13:05:19.954Z,47.20
2019-05-18T13:07:50.611Z,47.10
2019-05-18T13:10:22.445Z,47.10
2019-05-18T13:12:53.370Z,47.50
2019-05-18T13:15:24.009Z,47.80
2019-05-18T13:17:55.074Z,48.30
2019-05-18T13:20:25.965Z,48.00
2019-05-18T13:22:56.618Z,47.60
2019-05-18T13:25:27.302Z,47.40
2019-05-18T13:27:58.115Z,47.50
2019-05-18T13:30:29.141Z,47.50
2019-05-18T13:32:59.858Z,46.90
2019-05-18T13:35:30.496Z,47.20
2019-05-18T13:38:01.449Z,47.70
2019-05-18T13:40:32.580Z,47.20
2019-05-18T13:43:03.467Z,47.70
2019-05-18T13:45:34.950Z,47.70
2019-05-18T13:48:06.021Z,47.80
2019-05-18T13:50:36.945Z,47.20
2019-05-18T13:53:07.489Z,47.80
2019-05-18T13:55:38.358Z,47.90
2019-05-18T13:58:09.248Z,48.00
2019-05-18T14:00:40.603Z,48.00
2019-05-18T14:03:11.525Z,46.90
2019-05-18T14:05:42.512Z,46.40
2019-05-18T14:08:15.702Z,47.10
2019-05-18T14:10:46.205Z,47.50
2019-05-18T14:13:17.168Z,47.70
2019-05-18T14:15:48.241Z,47.70
2019-05-18T14:18:18.940Z,47.80
2019-05-18T14:20:49.792Z,47.80
2019-05-18T14:23:20.579Z,47.90
2019-05-18T14:25:51.314Z,47.90
2019-05-18T14:28:22.167Z,47.90
2019-05-18T14:30:53.242Z,47.80
2019-05-18T14:33:24.465Z,47.50
2019-05-18T14:35:55.404Z,47.80
2019-05-18T14:38:26.388Z,48.40
2019-05-18T14:40:57.540Z,48.30
2019-05-18T14:43:29.514Z,48.30
2019-05-18T14:46:00.556Z,48.20
2019-05-18T14:48:31.587Z,48.20
2019-05-18T14:51:02.386Z,48.30
2019-05-18T14:53:33.435Z,48.30
2019-05-18T14:56:04.323Z,48.40
2019-05-18T14:58:35.186Z,48.30
2019-05-18T15:01:06.008Z,48.30
2019-05-18T15:03:36.970Z,48.90
2019-05-18T15:06:07.701Z,49.20
2019-05-18T15:08:38.728Z,49.00
2019-05-18T15:11:10.014Z,49.70
2019-05-18T15:13:41.042Z,49.10
2019-05-18T15:16:11.904Z,51.30
2019-05-18T15:18:43.124Z,53.90
2019-05-18T15:21:14.413Z,53.80
2019-05-18T15:23:45.412Z,53.60
2019-05-18T15:26:16.360Z,53.90
2019-05-18T15:28:47.246Z,53.20
2019-05-18T15:31:18.026Z,52.10
2019-05-18T15:33:48.775Z,51.70
2019-05-18T15:36:19.665Z,51.20
2019-05-18T15:38:50.631Z,51.40
2019-05-18T15:41:21.402Z,50.60
2019-05-18T15:43:52.332Z,50.20
2019-05-18T15:46:23.232Z,50.60
2019-05-18T15:48:54.349Z,50.00
2019-05-18T15:51:25.657Z,50.00
2019-05-18T15:53:56.592Z,50.10
2019-05-18T15:56:27.974Z,49.80
2019-05-18T15:59:00.635Z,49.80
2019-05-18T16:01:33.938Z,49.50
2019-05-18T16:04:06.551Z,49.30
2019-05-18T16:06:37.200Z,49.30
2019-05-18T16:09:08.338Z,49.30
2019-05-18T16:11:39.268Z,49.30
2019-05-18T16:14:10.294Z,49.10
2019-05-18T16:16:41.077Z,48.90
2019-05-18T16:19:12.211Z,48.80
2019-05-18T16:21:43.079Z,48.90
2019-05-18T16:24:14.115Z,48.70
2019-05-18T16:26:44.960Z,48.80
2019-05-18T16:29:15.833Z,48.80
2019-05-18T16:31:47.109Z,48.60
2019-05-18T16:34:18.266Z,48.30
2019-05-18T16:36:49.016Z,48.20
2019-05-18T16:39:20.166Z,49.00
2019-05-18T16:41:51.015Z,50.20
2019-05-18T16:44:21.760Z,53.30
2019-05-18T16:46:52.653Z,59.10
2019-05-18T16:49:23.563Z,54.20
2019-05-18T16:51:54.614Z,63.50
2019-05-18T16:54:25.698Z,59.60
2019-05-18T16:56:56.415Z,55.70
2019-05-18T16:59:27.266Z,58.70
2019-05-18T17:01:58.211Z,54.10
2019-05-18T17:04:29.252Z,52.50
2019-05-18T17:07:00.065Z,52.60
2019-05-18T17:09:31.011Z,52.30
2019-05-18T17:12:01.775Z,52.40
2019-05-18T17:14:32.806Z,50.80
2019-05-18T17:17:03.612Z,51.00
2019-05-18T17:19:34.471Z,51.20
2019-05-18T17:22:05.264Z,50.70
2019-05-18T17:24:36.775Z,50.40
2019-05-18T17:27:07.756Z,50.20
2019-05-18T17:29:38.647Z,50.40
2019-05-18T17:32:09.687Z,50.50
2019-05-18T17:34:40.729Z,50.70
2019-05-18T17:37:11.665Z,50.90
2019-05-18T17:39:42.501Z,52.70
2019-05-18T17:42:13.619Z,52.40
2019-05-18T17:44:44.755Z,52.30
2019-05-18T17:47:18.719Z,52.80
2019-05-18T17:49:49.313Z,52.30
2019-05-18T17:52:19.947Z,52.50
2019-05-18T17:54:50.942Z,52.80
2019-05-18T17:57:22.124Z,53.00
2019-05-18T17:59:52.855Z,54.20
2019-05-18T18:02:23.607Z,53.00
2019-05-18T18:04:54.607Z,51.00
2019-05-18T18:07:25.795Z,51.20
2019-05-18T18:09:57.036Z,50.40
2019-05-18T18:12:27.684Z,50.30
2019-05-18T18:14:58.370Z,50.40
2019-05-18T18:17:29.327Z,50.00
2019-05-18T18:20:01.143Z,49.80
2019-05-18T18:22:31.954Z,49.60
2019-05-18T18:25:03.164Z,49.50
2019-05-18T18:27:34.135Z,49.60
2019-05-18T18:30:05.422Z,49.40
2019-05-18T18:32:36.488Z,49.30
2019-05-18T18:35:07.594Z,49.30
2019-05-18T18:37:38.547Z,49.40
2019-05-18T18:40:09.506Z,49.20
2019-05-18T18:42:40.959Z,49.30
2019-05-18T18:45:11.853Z,49.20
2019-05-18T18:47:42.700Z,49.20
2019-05-18T18:50:13.607Z,49.00
2019-05-18T18:52:44.432Z,49.10
2019-05-18T18:55:15.170Z,49.10
2019-05-18T18:57:45.908Z,49.10
2019-05-18T19:00:16.936Z,49.00
2019-05-18T19:02:48.025Z,49.10
2019-05-18T19:05:18.921Z,48.90
2019-05-18T19:07:49.919Z,48.90
2019-05-18T19:10:20.586Z,48.50
2019-05-18T19:12:51.481Z,48.30
2019-05-18T19:15:22.405Z,48.30
2019-05-18T19:17:53.253Z,48.50
2019-05-18T19:20:24.257Z,48.60
2019-05-18T19:22:55.558Z,48.30
2019-05-18T19:25:26.580Z,48.40
2019-05-18T19:27:57.453Z,48.40
2019-05-18T19:30:28.556Z,48.30
2019-05-18T19:32:59.584Z,48.30
2019-05-18T19:35:30.534Z,48.40
2019-05-18T19:38:01.493Z,48.30
2019-05-18T19:40:32.476Z,48.20
2019-05-18T19:43:03.347Z,48.20
2019-05-18T19:45:34.152Z,48.30
2019-05-18T19:48:05.233Z,48.30
2019-05-18T19:50:36.362Z,48.40
2019-05-18T19:53:07.243Z,50.50
2019-05-18T19:55:38.175Z,49.80
2019-05-18T19:58:09.477Z,50.30
2019-05-18T20:00:40.540Z,49.30
2019-05-18T20:03:11.271Z,48.80
2019-05-18T20:05:42.229Z,48.70
2019-05-18T20:08:13.176Z,48.90
2019-05-18T20:10:44.503Z,49.50
2019-05-18T20:13:15.890Z,57.20
2019-05-18T20:15:46.904Z,56.20
2019-05-18T20:18:18.060Z,55.60
2019-05-18T20:20:49.139Z,58.10
2019-05-18T20:23:20.246Z,57.30
2019-05-18T20:25:51.096Z,56.60
2019-05-18T20:28:24.104Z,55.00
2019-05-18T20:30:55.496Z,54.30
2019-05-18T20:33:26.939Z,53.70
2019-05-18T20:35:58.501Z,52.90
2019-05-18T20:38:30.153Z,52.50
2019-05-18T20:41:01.472Z,52.20
2019-05-18T20:43:34.105Z,52.00
2019-05-18T20:46:05.379Z,51.90
2019-05-18T20:48:36.551Z,51.80
2019-05-18T20:51:07.819Z,51.90
2019-05-18T20:53:41.171Z,51.40
2019-05-18T20:56:12.074Z,51.30
2019-05-18T20:58:43.488Z,51.20
2019-05-18T21:01:14.562Z,51.20
2019-05-18T21:03:45.610Z,51.30
2019-05-18T21:06:16.714Z,51.10
2019-05-18T21:08:47.699Z,51.00
2019-05-18T21:11:24.220Z,51.10
2019-05-18T21:14:03.010Z,51.00
2019-05-18T21:16:42.177Z,50.90
2019-05-18T21:19:15.044Z,51.00
2019-05-18T21:21:46.093Z,50.80
2019-05-18T21:24:17.100Z,50.80
2019-05-18T21:26:49.636Z,50.60
2019-05-18T21:29:22.065Z,50.20
2019-05-18T21:31:53.613Z,50.20
2019-05-18T21:34:26.430Z,50.10
2019-05-18T21:36:58.757Z,50.20
2019-05-18T21:39:38.143Z,50.60
2019-05-18T21:42:27.793Z,50.00
2019-05-18T21:45:02.284Z,49.80
2019-05-18T21:47:35.087Z,49.90
2019-05-18T21:50:07.701Z,49.80
2019-05-18T21:52:42.002Z,49.70
2019-05-18T21:55:14.640Z,49.60
2019-05-18T21:57:45.930Z,49.70
2019-05-18T22:00:18.152Z,49.70
2019-05-18T22:02:50.440Z,49.80
2019-05-18T22:05:21.600Z,49.90
2019-05-18T22:07:52.684Z,49.80
2019-05-18T22:10:26.126Z,49.70
2019-05-18T22:12:56.921Z,49.70
2019-05-18T22:15:28.175Z,50.20
2019-05-18T22:18:22.189Z,49.70
2019-05-18T22:20:43.984Z,49.80
2019-05-18T22:23:13.698Z,49.80
2019-05-18T22:25:44.711Z,50.40
2019-05-18T22:28:15.785Z,50.80
2019-05-18T22:30:46.786Z,51.00
2019-05-18T22:33:17.804Z,51.50
2019-05-18T22:35:48.912Z,50.90
2019-05-18T22:38:19.873Z,51.00
2019-05-18T22:40:50.766Z,51.00
2019-05-18T22:43:21.738Z,51.00
2019-05-18T22:45:52.924Z,51.00
2019-05-18T22:48:24.146Z,51.00
2019-05-18T22:50:55.091Z,51.00
2019-05-18T22:53:26.123Z,50.60
2019-05-18T22:55:56.970Z,50.20
2019-05-18T22:58:27.747Z,50.00
2019-05-18T23:00:58.693Z,49.70
2019-05-18T23:03:29.727Z,49.70
2019-05-18T23:06:00.586Z,50.50
2019-05-18T23:08:31.459Z,50.40
2019-05-18T23:11:02.478Z,50.50
2019-05-18T23:13:33.405Z,50.30
2019-05-18T23:16:04.283Z,50.40
2019-05-18T23:18:35.003Z,50.20
2019-05-18T23:21:05.651Z,50.90
2019-05-18T23:23:36.568Z,50.20
2019-05-18T23:26:11.225Z,50.30
2019-05-18T23:28:39.908Z,50.30
2019-05-18T23:31:10.919Z,50.20
2019-05-18T23:33:42.054Z,50.30
2019-05-18T23:36:14.332Z,50.40
2019-05-18T23:38:45.677Z,50.40
2019-05-18T23:41:16.928Z,50.40
2019-05-18T23:43:47.647Z,50.40
2019-05-18T23:46:18.520Z,51.00
2019-05-18T23:48:52.561Z,50.30
2019-05-18T23:51:23.520Z,49.90
2019-05-18T23:53:54.664Z,49.60
2019-05-18T23:56:25.531Z,49.60
2019-05-18T23:58:56.601Z,49.90
